createdAt,value
2022-11-27T00:02:11.586Z,8.40
2022-11-27T00:04:37.913Z,8.39
2022-11-27T00:07:04.283Z,8.38
2022-11-27T00:09:30.653Z,8.36
2022-11-27T00:11:56.966Z,8.38
2022-11-27T00:14:23.367Z,8.37
2022-11-27T00:16:49.676Z,8.38
2022-11-27T00:19:16.113Z,8.36
2022-11-27T00:21:42.465Z,8.36
2022-11-27T00:24:08.849Z,8.32
2022-11-27T00:26:38.050Z,8.35
2022-11-27T00:29:01.557Z,8.35
2022-11-27T00:31:28.012Z,8.33
2022-11-27T00:33:54.256Z,8.33
2022-11-27T00:36:20.576Z,8.34
2022-11-27T00:38:46.953Z,8.33
2022-11-27T00:41:13.268Z,8.35
2022-11-27T00:43:44.386Z,8.34
2022-11-27T00:46:06.045Z,8.34
2022-11-27T00:48:32.356Z,8.35
2022-11-27T00:50:58.676Z,8.35
2022-11-27T00:53:25.070Z,8.34
2022-11-27T00:55:51.474Z,8.34
2022-11-27T00:58:17.775Z,8.35
2022-11-27T01:00:44.134Z,8.35
2022-11-27T01:03:10.596Z,8.35
2022-11-27T01:05:36.919Z,8.35
2022-11-27T01:08:03.286Z,8.35
2022-11-27T01:10:29.607Z,8.37
2022-11-27T01:12:55.975Z,8.38
2022-11-27T01:15:22.296Z,8.39
2022-11-27T01:17:48.642Z,8.40
2022-11-27T01:20:14.967Z,8.41
2022-11-27T01:22:41.302Z,8.41
2022-11-27T01:25:07.653Z,8.41
2022-11-27T01:27:33.984Z,8.42
2022-11-27T01:30:00.362Z,8.43
2022-11-27T01:32:26.693Z,8.43
2022-11-27T01:34:54.413Z,8.43
2022-11-27T01:37:19.425Z,8.44
2022-11-27T01:39:45.731Z,8.45
2022-11-27T01:42:12.140Z,8.46
2022-11-27T01:44:38.645Z,8.45
2022-11-27T01:47:04.826Z,8.47
2022-11-27T01:49:31.211Z,8.49
2022-11-27T01:51:57.595Z,8.50
2022-11-27T01:54:23.901Z,8.52
2022-11-27T01:56:50.280Z,8.55
2022-11-27T01:59:16.594Z,8.56
2022-11-27T02:01:42.958Z,8.56
2022-11-27T02:04:09.313Z,8.59
2022-11-27T02:06:35.687Z,8.59
2022-11-27T02:09:02.036Z,8.60
2022-11-27T02:11:28.369Z,8.61
2022-11-27T02:13:54.685Z,8.63
2022-11-27T02:16:21.169Z,8.61
2022-11-27T02:18:47.471Z,8.63
2022-11-27T02:21:13.811Z,8.65
2022-11-27T02:23:40.170Z,8.65
2022-11-27T02:26:06.581Z,8.67
2022-11-27T02:28:32.903Z,8.68
2022-11-27T02:30:59.286Z,8.69
2022-11-27T02:33:25.553Z,8.71
2022-11-27T02:35:51.925Z,8.72
2022-11-27T02:38:18.327Z,8.72
2022-11-27T02:40:44.699Z,8.72
2022-11-27T02:43:11.054Z,8.73
2022-11-27T02:45:37.391Z,8.72
2022-11-27T02:48:03.746Z,8.72
2022-11-27T02:50:30.118Z,8.71
2022-11-27T02:52:56.503Z,8.72
2022-11-27T02:55:22.840Z,8.71
2022-11-27T02:57:49.160Z,8.70
2022-11-27T03:00:15.506Z,8.69
2022-11-27T03:02:41.942Z,8.68
2022-11-27T03:05:08.232Z,8.69
2022-11-27T03:07:34.637Z,8.68
2022-11-27T03:10:01.002Z,8.68
2022-11-27T03:12:27.313Z,8.66
2022-11-27T03:14:53.659Z,8.67
2022-11-27T03:17:20.018Z,8.65
2022-11-27T03:19:46.363Z,8.65
2022-11-27T03:22:12.716Z,8.64
2022-11-27T03:24:39.550Z,8.65
2022-11-27T03:27:05.405Z,8.65
2022-11-27T03:29:31.744Z,8.65
2022-11-27T03:31:58.078Z,8.66
2022-11-27T03:34:24.505Z,8.66
2022-11-27T03:36:50.851Z,8.66
2022-11-27T03:39:17.216Z,8.66
2022-11-27T03:41:43.611Z,8.68
2022-11-27T03:44:09.963Z,8.69
2022-11-27T03:46:36.335Z,8.70
2022-11-27T03:49:02.680Z,8.65
2022-11-27T03:51:28.993Z,8.71
2022-11-27T03:53:55.338Z,8.70
2022-11-27T03:56:21.672Z,8.71
2022-11-27T03:58:48.045Z,8.72
2022-11-27T04:01:14.394Z,8.73
2022-11-27T04:03:40.762Z,8.73
2022-11-27T04:06:07.031Z,8.73
2022-11-27T04:08:33.408Z,8.73
2022-11-27T04:10:59.718Z,8.73
2022-11-27T04:13:26.176Z,8.72
2022-11-27T04:15:52.514Z,8.71
2022-11-27T04:18:18.838Z,8.71
2022-11-27T04:20:45.154Z,8.71
2022-11-27T04:23:11.497Z,8.70
2022-11-27T04:25:37.851Z,8.67
2022-11-27T04:28:04.262Z,8.68
2022-11-27T04:30:30.608Z,8.66
2022-11-27T04:32:56.974Z,8.66
2022-11-27T04:35:23.325Z,8.66
2022-11-27T04:37:49.660Z,8.64
2022-11-27T04:40:16.035Z,8.63
2022-11-27T04:42:42.410Z,8.62
2022-11-27T04:45:08.767Z,8.60
2022-11-27T04:47:35.167Z,8.60
2022-11-27T04:50:01.477Z,8.60
2022-11-27T04:52:27.826Z,8.60
2022-11-27T04:54:59.624Z,8.61
2022-11-27T04:57:20.507Z,8.61
2022-11-27T04:59:46.852Z,8.62
2022-11-27T05:02:13.225Z,8.62
2022-11-27T05:04:39.803Z,8.62
2022-11-27T05:07:05.907Z,8.62
2022-11-27T05:09:32.257Z,8.60
2022-11-27T05:11:58.640Z,8.62
2022-11-27T05:14:24.996Z,8.62
2022-11-27T05:16:51.393Z,8.61
2022-11-27T05:19:17.706Z,8.61
2022-11-27T05:21:44.037Z,8.60
2022-11-27T05:24:10.355Z,8.60
2022-11-27T05:26:36.764Z,8.59
2022-11-27T05:29:03.113Z,8.59
2022-11-27T05:31:29.488Z,8.58
2022-11-27T05:33:55.795Z,8.56
2022-11-27T05:36:22.168Z,8.52
2022-11-27T05:38:48.512Z,8.55
2022-11-27T05:41:14.890Z,8.54
2022-11-27T05:43:41.242Z,8.54
2022-11-27T05:46:07.636Z,8.54
2022-11-27T05:48:33.990Z,8.54
2022-11-27T05:51:00.322Z,8.54
2022-11-27T05:53:26.676Z,8.54
2022-11-27T05:55:54.014Z,8.54
2022-11-27T05:58:20.333Z,8.54
2022-11-27T06:00:46.708Z,8.53
2022-11-27T06:03:13.120Z,8.55
2022-11-27T06:05:39.412Z,8.55
2022-11-27T06:08:05.767Z,8.55
2022-11-27T06:10:32.168Z,8.55
2022-11-27T06:12:58.523Z,8.56
2022-11-27T06:15:24.852Z,8.56
2022-11-27T06:17:51.225Z,8.58
2022-11-27T06:20:17.559Z,8.61
2022-11-27T06:22:43.912Z,8.61
2022-11-27T06:25:10.250Z,8.62
2022-11-27T06:27:36.563Z,8.66
2022-11-27T06:30:03.031Z,8.68
2022-11-27T06:32:29.362Z,8.70
2022-11-27T06:34:55.695Z,8.73
2022-11-27T06:37:22.173Z,8.75
2022-11-27T06:39:48.545Z,8.78
2022-11-27T06:42:14.884Z,8.82
2022-11-27T06:44:41.488Z,8.85
2022-11-27T06:47:07.545Z,8.91
2022-11-27T06:49:33.984Z,8.97
2022-11-27T06:52:00.651Z,9.02
2022-11-27T06:54:26.958Z,9.07
2022-11-27T06:56:53.278Z,9.13
2022-11-27T06:59:19.770Z,9.19
2022-11-27T07:01:46.100Z,9.26
2022-11-27T07:04:12.572Z,9.32
2022-11-27T07:06:38.877Z,9.39
2022-11-27T07:09:05.307Z,9.48
2022-11-27T07:11:31.664Z,9.58
2022-11-27T07:13:58.038Z,9.69
2022-11-27T07:16:24.398Z,9.81
2022-11-27T07:18:50.726Z,9.94
2022-11-27T07:21:17.052Z,10.07
2022-11-27T07:23:43.457Z,10.23
2022-11-27T07:26:09.768Z,10.36
2022-11-27T07:28:36.171Z,10.46
2022-11-27T07:31:02.532Z,10.51
2022-11-27T07:33:28.862Z,10.60
2022-11-27T07:35:55.229Z,10.66
2022-11-27T07:38:21.606Z,10.71
2022-11-27T07:40:47.931Z,10.77
2022-11-27T07:43:14.305Z,10.83
2022-11-27T07:45:40.774Z,10.85
2022-11-27T07:48:07.152Z,10.90
2022-11-27T07:50:33.461Z,10.92
2022-11-27T07:52:59.811Z,10.93
2022-11-27T07:55:26.141Z,10.92
2022-11-27T07:57:52.497Z,10.94
2022-11-27T08:00:18.813Z,10.93
2022-11-27T08:02:45.199Z,10.91
2022-11-27T08:05:13.241Z,10.93
2022-11-27T08:07:37.906Z,10.91
2022-11-27T08:10:04.266Z,10.91
2022-11-27T08:12:30.672Z,10.90
2022-11-27T08:14:57.059Z,10.89
2022-11-27T08:17:23.434Z,10.90
2022-11-27T08:19:49.747Z,10.91
2022-11-27T08:22:16.093Z,10.87
2022-11-27T08:24:42.885Z,10.88
2022-11-27T08:27:08.839Z,10.88
2022-11-27T08:29:35.226Z,10.84
2022-11-27T08:32:01.674Z,10.88
2022-11-27T08:34:27.910Z,10.88
2022-11-27T08:36:54.289Z,10.88
2022-11-27T08:39:20.675Z,10.89
2022-11-27T08:41:47.048Z,10.90
2022-11-27T08:44:13.367Z,10.90
2022-11-27T08:46:39.749Z,11.61
2022-11-27T08:49:06.068Z,12.98
2022-11-27T08:51:32.449Z,13.85
2022-11-27T08:53:58.807Z,14.37
2022-11-27T08:56:25.181Z,14.59
2022-11-27T08:58:51.535Z,13.63
2022-11-27T09:01:18.004Z,12.56
2022-11-27T09:03:44.293Z,11.72
2022-11-27T09:06:10.659Z,10.99
2022-11-27T09:08:37.012Z,10.62
2022-11-27T09:11:03.405Z,10.74
2022-11-27T09:13:29.799Z,10.84
2022-11-27T09:15:56.207Z,10.98
2022-11-27T09:18:22.490Z,11.05
2022-11-27T09:20:48.867Z,10.88
2022-11-27T09:23:15.220Z,10.39
2022-11-27T09:25:41.554Z,9.92
2022-11-27T09:28:07.892Z,9.73
2022-11-27T09:30:34.251Z,9.67
2022-11-27T09:33:00.597Z,9.67
2022-11-27T09:35:26.985Z,9.67
2022-11-27T09:37:53.299Z,9.65
2022-11-27T09:40:19.741Z,9.53
2022-11-27T09:42:46.085Z,9.35
2022-11-27T09:45:12.460Z,9.28
2022-11-27T09:47:41.616Z,9.31
2022-11-27T09:50:05.171Z,9.43
2022-11-27T09:52:31.495Z,9.63
2022-11-27T09:54:57.837Z,9.77
2022-11-27T09:57:24.196Z,9.82
2022-11-27T09:59:50.569Z,9.71
2022-11-27T10:02:16.973Z,9.63
2022-11-27T10:05:05.836Z,9.64
2022-11-27T10:07:09.598Z,9.65
2022-11-27T10:09:35.984Z,9.69
2022-11-27T10:12:02.368Z,9.70
2022-11-27T10:14:28.683Z,9.62
2022-11-27T10:16:55.121Z,9.52
2022-11-27T10:19:21.383Z,9.46
2022-11-27T10:21:47.835Z,9.40
2022-11-27T10:24:14.155Z,9.38
2022-11-27T10:26:40.529Z,9.35
2022-11-27T10:29:06.881Z,9.41
2022-11-27T10:31:33.279Z,9.49
2022-11-27T10:33:59.590Z,9.60
2022-11-27T10:36:25.969Z,9.66
2022-11-27T10:38:52.280Z,9.77
2022-11-27T10:41:41.974Z,9.87
2022-11-27T10:43:45.013Z,9.94
2022-11-27T10:46:11.458Z,9.90
2022-11-27T10:48:37.739Z,9.88
2022-11-27T10:51:04.160Z,9.89
2022-11-27T10:53:30.538Z,9.77
2022-11-27T10:55:56.916Z,9.63
2022-11-27T10:58:23.232Z,9.50
2022-11-27T11:00:49.650Z,9.45
2022-11-27T11:03:15.969Z,9.40
2022-11-27T11:06:04.549Z,9.37
2022-11-27T11:08:08.672Z,9.36
2022-11-27T11:10:35.073Z,9.36
2022-11-27T11:13:01.385Z,9.38
2022-11-27T11:15:27.729Z,9.49
2022-11-27T11:17:54.060Z,9.55
2022-11-27T11:20:20.520Z,9.65
2022-11-27T11:22:46.845Z,9.72
2022-11-27T11:25:13.186Z,9.65
2022-11-27T11:27:39.539Z,9.89
2022-11-27T11:30:05.916Z,9.83
2022-11-27T11:32:32.263Z,9.70
2022-11-27T11:35:01.217Z,9.59
2022-11-27T11:37:24.918Z,9.59
2022-11-27T11:39:51.301Z,9.59
2022-11-27T11:42:17.651Z,9.57
2022-11-27T11:44:44.086Z,9.52
2022-11-27T11:47:10.349Z,9.50
2022-11-27T11:49:36.700Z,9.50
2022-11-27T11:52:03.055Z,9.42
2022-11-27T11:54:29.422Z,9.35
2022-11-27T11:56:55.764Z,9.29
2022-11-27T11:59:22.107Z,9.24
2022-11-27T12:01:48.568Z,9.24
2022-11-27T12:04:14.862Z,9.23
2022-11-27T12:06:41.189Z,9.23
2022-11-27T12:09:07.526Z,9.26
2022-11-27T12:11:33.848Z,9.30
2022-11-27T12:14:00.256Z,9.34
2022-11-27T12:16:26.596Z,9.32
2022-11-27T12:18:52.909Z,9.31
2022-11-27T12:21:19.280Z,9.28
2022-11-27T12:23:45.617Z,9.22
2022-11-27T12:26:11.937Z,9.19
2022-11-27T12:28:38.329Z,9.20
2022-11-27T12:31:04.724Z,9.21
2022-11-27T12:33:31.057Z,9.23
2022-11-27T12:35:57.367Z,9.25
2022-11-27T12:38:23.747Z,9.23
2022-11-27T12:40:50.068Z,9.20
2022-11-27T12:43:16.414Z,9.13
2022-11-27T12:45:42.787Z,9.10
2022-11-27T12:48:09.084Z,9.10
2022-11-27T12:50:35.410Z,9.09
2022-11-27T12:53:01.813Z,9.07
2022-11-27T12:55:28.163Z,9.11
2022-11-27T12:57:54.494Z,9.12
2022-11-27T13:00:20.853Z,9.51
2022-11-27T13:02:47.269Z,10.19
2022-11-27T13:05:13.611Z,10.66
2022-11-27T13:07:41.291Z,10.85
2022-11-27T13:10:07.597Z,10.57
2022-11-27T13:12:33.957Z,10.26
2022-11-27T13:15:00.284Z,9.99
2022-11-27T13:17:26.714Z,9.85
2022-11-27T13:19:53.041Z,9.73
2022-11-27T13:22:19.380Z,9.62
2022-11-27T13:24:45.707Z,9.51
2022-11-27T13:27:12.089Z,9.42
2022-11-27T13:29:38.493Z,9.35
2022-11-27T13:32:04.960Z,9.28
2022-11-27T13:34:31.239Z,9.23
2022-11-27T13:36:57.583Z,9.18
2022-11-27T13:39:23.952Z,9.12
2022-11-27T13:41:50.343Z,9.11
2022-11-27T13:44:16.645Z,9.08
2022-11-27T13:46:43.056Z,9.04
2022-11-27T13:49:09.373Z,9.02
2022-11-27T13:51:35.762Z,8.97
2022-11-27T13:54:02.130Z,8.93
2022-11-27T13:56:28.467Z,8.93
2022-11-27T13:58:54.838Z,8.89
2022-11-27T14:01:21.295Z,9.21
2022-11-27T14:03:47.562Z,9.41
2022-11-27T14:06:13.936Z,9.35
2022-11-27T14:08:40.263Z,9.29
2022-11-27T14:11:06.644Z,9.17
2022-11-27T14:13:32.960Z,9.06
2022-11-27T14:15:59.362Z,8.98
2022-11-27T14:18:25.686Z,8.91
2022-11-27T14:20:52.036Z,8.86
2022-11-27T14:23:18.405Z,8.84
2022-11-27T14:25:44.777Z,8.79
2022-11-27T14:28:11.205Z,8.75
2022-11-27T14:30:37.660Z,8.70
2022-11-27T14:33:04.005Z,8.99
2022-11-27T14:35:30.387Z,10.38
2022-11-27T14:37:56.752Z,10.87
2022-11-27T14:40:23.107Z,10.47
2022-11-27T14:42:49.466Z,10.08
2022-11-27T14:45:15.806Z,9.76
2022-11-27T14:47:42.132Z,9.47
2022-11-27T14:50:08.634Z,9.30
2022-11-27T14:52:34.950Z,9.13
2022-11-27T14:55:01.336Z,9.01
2022-11-27T14:57:27.670Z,8.92
2022-11-27T14:59:54.077Z,8.84
2022-11-27T15:02:24.599Z,8.80
2022-11-27T15:04:46.842Z,8.73
2022-11-27T15:07:13.209Z,8.66
2022-11-27T15:09:39.593Z,8.64
2022-11-27T15:12:05.943Z,8.62
2022-11-27T15:14:32.377Z,8.59
2022-11-27T15:16:58.707Z,8.55
2022-11-27T15:19:26.444Z,8.50
2022-11-27T15:21:51.500Z,8.46
2022-11-27T15:24:17.843Z,8.47
2022-11-27T15:26:44.225Z,8.45
2022-11-27T15:29:10.597Z,8.43
2022-11-27T15:31:37.020Z,8.41
2022-11-27T15:34:03.289Z,8.38
2022-11-27T15:36:29.637Z,8.37
2022-11-27T15:38:55.968Z,8.35
2022-11-27T15:41:22.321Z,8.32
2022-11-27T15:43:48.674Z,8.29
2022-11-27T15:46:15.105Z,8.28
2022-11-27T15:48:41.401Z,8.26
2022-11-27T15:51:07.771Z,8.26
2022-11-27T15:53:34.157Z,8.25
2022-11-27T15:56:00.605Z,8.25
2022-11-27T15:58:27.073Z,8.23
2022-11-27T16:00:53.487Z,8.22
2022-11-27T16:03:19.844Z,8.21
2022-11-27T16:05:46.202Z,8.81
2022-11-27T16:08:12.574Z,9.45
2022-11-27T16:10:38.925Z,9.42
2022-11-27T16:13:05.303Z,9.41
2022-11-27T16:15:33.098Z,9.45
2022-11-27T16:17:58.012Z,9.51
2022-11-27T16:20:24.369Z,9.59
2022-11-27T16:22:50.807Z,9.66
2022-11-27T16:25:17.146Z,9.70
2022-11-27T16:27:43.494Z,9.72
2022-11-27T16:30:09.866Z,9.76
2022-11-27T16:32:36.253Z,9.80
2022-11-27T16:35:02.718Z,9.86
2022-11-27T16:37:29.093Z,9.88
2022-11-27T16:39:55.411Z,9.89
2022-11-27T16:42:21.755Z,9.95
2022-11-27T16:44:48.126Z,9.93
2022-11-27T16:47:14.497Z,9.87
2022-11-27T16:49:40.853Z,9.78
2022-11-27T16:52:07.209Z,9.73
2022-11-27T16:54:33.556Z,9.73
2022-11-27T16:56:59.894Z,9.78
2022-11-27T16:59:26.287Z,9.84
2022-11-27T17:01:52.683Z,9.89
2022-11-27T17:04:18.970Z,9.93
2022-11-27T17:06:45.312Z,9.99
2022-11-27T17:09:11.640Z,10.03
2022-11-27T17:11:37.983Z,10.05
2022-11-27T17:14:04.304Z,10.09
2022-11-27T17:16:30.781Z,10.12
2022-11-27T17:18:57.140Z,10.73
2022-11-27T17:21:23.594Z,11.18
2022-11-27T17:23:49.909Z,11.09
2022-11-27T17:26:16.250Z,11.03
2022-11-27T17:28:42.629Z,10.98
2022-11-27T17:31:09.109Z,10.86
2022-11-27T17:33:35.402Z,10.74
2022-11-27T17:36:01.749Z,10.60
2022-11-27T17:38:28.153Z,10.52
2022-11-27T17:40:54.487Z,10.49
2022-11-27T17:43:20.806Z,10.51
2022-11-27T17:45:47.239Z,10.51
2022-11-27T17:48:13.482Z,10.55
2022-11-27T17:50:39.866Z,10.55
2022-11-27T17:53:06.232Z,10.55
2022-11-27T17:55:32.595Z,10.58
2022-11-27T17:57:58.937Z,10.60
2022-11-27T18:00:25.319Z,10.60
2022-11-27T18:02:51.682Z,10.60
2022-11-27T18:05:18.089Z,10.60
2022-11-27T18:07:44.526Z,10.61
2022-11-27T18:10:10.846Z,10.63
2022-11-27T18:12:37.248Z,10.64
2022-11-27T18:15:03.644Z,10.65
2022-11-27T18:17:29.958Z,10.58
2022-11-27T18:19:56.353Z,10.49
2022-11-27T18:22:22.719Z,10.64
2022-11-27T18:24:49.069Z,11.05
2022-11-27T18:27:15.395Z,11.07
2022-11-27T18:29:42.411Z,11.08
2022-11-27T18:32:08.449Z,11.07
2022-11-27T18:34:34.680Z,11.06
2022-11-27T18:37:01.088Z,11.04
2022-11-27T18:39:27.413Z,11.03
2022-11-27T18:41:53.735Z,11.01
2022-11-27T18:44:20.148Z,11.01
2022-11-27T18:46:46.517Z,10.98
2022-11-27T18:49:12.940Z,10.98
2022-11-27T18:51:39.269Z,10.97
2022-11-27T18:54:05.666Z,10.97
2022-11-27T18:56:32.023Z,10.96
2022-11-27T18:58:58.362Z,10.97
2022-11-27T19:01:24.753Z,10.96
2022-11-27T19:03:51.061Z,10.87
2022-11-27T19:06:17.377Z,10.75
2022-11-27T19:08:43.762Z,10.68
2022-11-27T19:11:10.153Z,10.65
2022-11-27T19:13:36.500Z,10.68
2022-11-27T19:16:02.922Z,10.73
2022-11-27T19:18:29.326Z,10.78
2022-11-27T19:20:55.667Z,10.78
2022-11-27T19:23:22.094Z,10.79
2022-11-27T19:25:48.437Z,10.83
2022-11-27T19:28:14.784Z,10.85
2022-11-27T19:30:41.164Z,10.84
2022-11-27T19:33:07.497Z,10.85
2022-11-27T19:35:33.881Z,10.87
2022-11-27T19:38:00.252Z,10.87
2022-11-27T19:40:26.625Z,10.88
2022-11-27T19:42:57.964Z,10.90
2022-11-27T19:45:19.334Z,10.89
2022-11-27T19:47:45.720Z,10.86
2022-11-27T19:50:12.023Z,10.73
2022-11-27T19:52:38.420Z,10.62
2022-11-27T19:55:04.809Z,10.55
2022-11-27T19:57:31.188Z,10.52
2022-11-27T19:59:57.502Z,10.56
2022-11-27T20:02:23.902Z,10.60
2022-11-27T20:04:50.237Z,10.64
2022-11-27T20:07:16.638Z,10.69
2022-11-27T20:09:42.932Z,10.71
2022-11-27T20:12:09.277Z,10.73
2022-11-27T20:14:35.648Z,10.75
2022-11-27T20:17:02.185Z,10.75
2022-11-27T20:19:28.487Z,10.77
2022-11-27T20:21:54.852Z,10.77
2022-11-27T20:24:21.170Z,10.75
2022-11-27T20:26:47.614Z,10.79
2022-11-27T20:29:13.896Z,10.79
2022-11-27T20:31:40.306Z,10.79
2022-11-27T20:34:06.616Z,10.78
2022-11-27T20:36:32.977Z,10.68
2022-11-27T20:38:59.379Z,10.61
2022-11-27T20:41:25.770Z,10.49
2022-11-27T20:43:52.140Z,10.52
2022-11-27T20:46:18.558Z,10.56
2022-11-27T20:48:44.896Z,10.61
2022-11-27T20:51:11.205Z,10.66
2022-11-27T20:53:37.546Z,10.69
2022-11-27T20:56:03.864Z,10.72
2022-11-27T20:58:30.199Z,10.73
2022-11-27T21:00:56.536Z,10.75
2022-11-27T21:03:22.892Z,10.75
2022-11-27T21:05:49.241Z,10.73
2022-11-27T21:08:15.655Z,10.76
2022-11-27T21:10:42.011Z,10.77
2022-11-27T21:13:08.385Z,10.78
2022-11-27T21:15:34.738Z,10.78
2022-11-27T21:18:01.076Z,10.77
2022-11-27T21:20:27.438Z,10.73
2022-11-27T21:22:53.803Z,10.60
2022-11-27T21:25:25.149Z,10.50
2022-11-27T21:27:46.547Z,10.41
2022-11-27T21:30:12.912Z,10.42
2022-11-27T21:32:39.296Z,10.49
2022-11-27T21:35:05.597Z,10.55
2022-11-27T21:37:31.944Z,10.59
2022-11-27T21:39:58.334Z,10.60
2022-11-27T21:42:24.635Z,10.61
2022-11-27T21:44:51.011Z,10.64
2022-11-27T21:47:17.381Z,10.65
2022-11-27T21:49:43.687Z,10.66
2022-11-27T21:52:10.087Z,10.64
2022-11-27T21:54:36.409Z,10.64
2022-11-27T21:57:02.773Z,10.64
2022-11-27T21:59:29.091Z,10.64
2022-11-27T22:01:55.474Z,10.64
2022-11-27T22:04:21.798Z,10.64
2022-11-27T22:06:48.333Z,10.57
2022-11-27T22:09:15.996Z,10.45
2022-11-27T22:11:40.820Z,10.32
2022-11-27T22:14:07.210Z,10.25
2022-11-27T22:16:33.590Z,10.28
2022-11-27T22:18:59.922Z,10.36
2022-11-27T22:21:26.301Z,10.40
2022-11-27T22:23:52.659Z,10.45
2022-11-27T22:26:18.993Z,10.49
2022-11-27T22:28:45.322Z,10.50
2022-11-27T22:31:11.790Z,10.52
2022-11-27T22:33:38.038Z,10.52
2022-11-27T22:36:04.411Z,10.52
2022-11-27T22:38:30.704Z,10.54
2022-11-27T22:40:57.147Z,10.55
2022-11-27T22:43:23.513Z,10.56
2022-11-27T22:45:49.852Z,10.57
2022-11-27T22:48:16.192Z,10.58
2022-11-27T22:50:42.527Z,10.61
2022-11-27T22:53:08.878Z,10.50
2022-11-27T22:55:35.238Z,10.35
2022-11-27T22:58:01.564Z,10.24
2022-11-27T23:00:27.897Z,10.21
2022-11-27T23:02:54.316Z,10.25
2022-11-27T23:05:20.661Z,10.31
2022-11-27T23:07:47.104Z,10.35
2022-11-27T23:10:13.408Z,10.39
2022-11-27T23:12:39.880Z,10.41
2022-11-27T23:15:06.207Z,10.43
2022-11-27T23:17:32.551Z,10.43
2022-11-27T23:19:58.942Z,10.45
2022-11-27T23:22:25.446Z,10.46
2022-11-27T23:24:51.765Z,10.43
2022-11-27T23:27:18.081Z,10.40
2022-11-27T23:29:44.420Z,10.40
2022-11-27T23:32:10.820Z,10.39
2022-11-27T23:34:37.118Z,10.39
2022-11-27T23:37:03.458Z,10.41
2022-11-27T23:39:29.838Z,10.30
2022-11-27T23:41:56.268Z,10.17
2022-11-27T23:44:22.643Z,10.04
2022-11-27T23:46:48.956Z,9.99
2022-11-27T23:49:15.333Z,10.04
2022-11-27T23:51:41.666Z,10.11
2022-11-27T23:54:08.042Z,10.15
2022-11-27T23:56:34.328Z,10.17
2022-11-27T23:59:00.711Z,10.19
